sensor_id;sensor_type;location;lat;lon;timestamp;temperature;humidity
13198;DHT22;6664;52.514;13.440;2022-09-27T00:01:07;12.30;54.50
13198;DHT22;6664;52.514;13.440;2022-09-27T00:03:35;12.30;54.00
13198;DHT22;6664;52.514;13.440;2022-09-27T00:08:39;12.30;54.40
13198;DHT22;6664;52.514;13.440;2022-09-27T00:11:26;12.30;54.10
13198;DHT22;6664;52.514;13.440;2022-09-27T00:13:57;12.30;53.70
13198;DHT22;6664;52.514;13.440;2022-09-27T00:16:33;12.30;53.70
13198;DHT22;6664;52.514;13.440;2022-09-27T00:19:03;12.30;53.80
13198;DHT22;6664;52.514;13.440;2022-09-27T00:21:31;12.30;53.70
13198;DHT22;6664;52.514;13.440;2022-09-27T00:23:58;12.30;53.70
13198;DHT22;6664;52.514;13.440;2022-09-27T00:26:25;12.30;53.70
13198;DHT22;6664;52.514;13.440;2022-09-27T00:28:52;12.30;53.70
13198;DHT22;6664;52.514;13.440;2022-09-27T00:31:22;12.30;53.70
13198;DHT22;6664;52.514;13.440;2022-09-27T00:33:51;12.30;53.70
13198;DHT22;6664;52.514;13.440;2022-09-27T00:36:20;12.30;53.70
13198;DHT22;6664;52.514;13.440;2022-09-27T00:38:47;12.30;53.70
13198;DHT22;6664;52.514;13.440;2022-09-27T00:41:19;12.30;53.70
13198;DHT22;6664;52.514;13.440;2022-09-27T00:43:49;12.20;53.60
13198;DHT22;6664;52.514;13.440;2022-09-27T00:46:30;12.20;53.60
13198;DHT22;6664;52.514;13.440;2022-09-27T00:49:18;12.20;53.90
13198;DHT22;6664;52.514;13.440;2022-09-27T00:51:53;12.20;53.60
13198;DHT22;6664;52.514;13.440;2022-09-27T00:54:23;12.20;53.60
13198;DHT22;6664;52.514;13.440;2022-09-27T00:56:56;12.20;53.60
13198;DHT22;6664;52.514;13.440;2022-09-27T01:00:08;12.20;53.60
13198;DHT22;6664;52.514;13.440;2022-09-27T01:02:17;12.20;53.60
13198;DHT22;6664;52.514;13.440;2022-09-27T01:04:47;12.20;53.60
13198;DHT22;6664;52.514;13.440;2022-09-27T01:07:18;12.20;53.60
13198;DHT22;6664;52.514;13.440;2022-09-27T01:09:46;12.20;53.60
13198;DHT22;6664;52.514;13.440;2022-09-27T01:12:24;12.10;53.60
13198;DHT22;6664;52.514;13.440;2022-09-27T01:18:12;12.10;53.50
13198;DHT22;6664;52.514;13.440;2022-09-27T01:32:19;12.10;53.60
13198;DHT22;6664;52.514;13.440;2022-09-27T01:37:45;12.10;53.60
13198;DHT22;6664;52.514;13.440;2022-09-27T01:43:11;12.10;53.60
13198;DHT22;6664;52.514;13.440;2022-09-27T01:48:22;12.20;53.60
13198;DHT22;6664;52.514;13.440;2022-09-27T01:51:11;12.20;53.60
13198;DHT22;6664;52.514;13.440;2022-09-27T01:53:43;12.30;53.50
13198;DHT22;6664;52.514;13.440;2022-09-27T01:56:18;12.30;53.40
13198;DHT22;6664;52.514;13.440;2022-09-27T01:58:59;12.40;52.90
13198;DHT22;6664;52.514;13.440;2022-09-27T02:01:33;12.40;52.80
13198;DHT22;6664;52.514;13.440;2022-09-27T02:04:05;12.40;52.70
13198;DHT22;6664;52.514;13.440;2022-09-27T02:06:41;12.50;52.50
13198;DHT22;6664;52.514;13.440;2022-09-27T02:09:15;12.50;52.20
13198;DHT22;6664;52.514;13.440;2022-09-27T02:11:51;12.50;51.90
13198;DHT22;6664;52.514;13.440;2022-09-27T02:14:52;12.50;52.00
13198;DHT22;6664;52.514;13.440;2022-09-27T02:17:43;12.50;51.70
13198;DHT22;6664;52.514;13.440;2022-09-27T02:25:33;12.60;51.20
13198;DHT22;6664;52.514;13.440;2022-09-27T02:28:48;12.60;51.20
13198;DHT22;6664;52.514;13.440;2022-09-27T02:31:15;12.70;51.10
13198;DHT22;6664;52.514;13.440;2022-09-27T02:33:52;12.70;50.80
13198;DHT22;6664;52.514;13.440;2022-09-27T02:36:21;12.70;50.80
13198;DHT22;6664;52.514;13.440;2022-09-27T02:38:50;12.80;51.00
13198;DHT22;6664;52.514;13.440;2022-09-27T02:41:19;12.80;50.70
13198;DHT22;6664;52.514;13.440;2022-09-27T02:43:51;12.80;50.80
13198;DHT22;6664;52.514;13.440;2022-09-27T03:00:56;12.90;50.90
13198;DHT22;6664;52.514;13.440;2022-09-27T03:06:35;12.90;50.90
13198;DHT22;6664;52.514;13.440;2022-09-27T03:09:04;12.90;50.70
13198;DHT22;6664;52.514;13.440;2022-09-27T03:11:30;12.90;50.90
13198;DHT22;6664;52.514;13.440;2022-09-27T03:13:58;12.90;51.00
13198;DHT22;6664;52.514;13.440;2022-09-27T03:16:34;12.90;50.80
13198;DHT22;6664;52.514;13.440;2022-09-27T03:19:02;12.90;51.00
13198;DHT22;6664;52.514;13.440;2022-09-27T03:21:28;12.90;51.10
13198;DHT22;6664;52.514;13.440;2022-09-27T03:23:57;12.90;51.10
13198;DHT22;6664;52.514;13.440;2022-09-27T03:26:24;12.90;50.90
13198;DHT22;6664;52.514;13.440;2022-09-27T03:28:53;12.90;51.10
13198;DHT22;6664;52.514;13.440;2022-09-27T03:31:23;12.90;51.20
13198;DHT22;6664;52.514;13.440;2022-09-27T03:33:52;12.90;50.70
13198;DHT22;6664;52.514;13.440;2022-09-27T03:36:19;12.90;50.70
13198;DHT22;6664;52.514;13.440;2022-09-27T03:38:48;12.90;50.80
13198;DHT22;6664;52.514;13.440;2022-09-27T03:41:17;12.80;50.70
13198;DHT22;6664;52.514;13.440;2022-09-27T03:43:44;12.80;50.80
13198;DHT22;6664;52.514;13.440;2022-09-27T03:46:11;12.80;50.90
13198;DHT22;6664;52.514;13.440;2022-09-27T03:48:38;12.80;50.90
13198;DHT22;6664;52.514;13.440;2022-09-27T03:51:05;12.80;51.20
13198;DHT22;6664;52.514;13.440;2022-09-27T03:53:35;12.80;51.90
13198;DHT22;6664;52.514;13.440;2022-09-27T03:56:04;12.80;52.10
13198;DHT22;6664;52.514;13.440;2022-09-27T03:58:31;12.80;52.20
13198;DHT22;6664;52.514;13.440;2022-09-27T04:01:01;12.80;52.10
13198;DHT22;6664;52.514;13.440;2022-09-27T04:03:28;12.80;52.60
13198;DHT22;6664;52.514;13.440;2022-09-27T04:05:54;12.80;53.00
13198;DHT22;6664;52.514;13.440;2022-09-27T04:08:21;12.80;53.30
13198;DHT22;6664;52.514;13.440;2022-09-27T04:10:48;12.70;53.30
13198;DHT22;6664;52.514;13.440;2022-09-27T04:13:17;12.70;53.40
13198;DHT22;6664;52.514;13.440;2022-09-27T04:15:44;12.70;54.00
13198;DHT22;6664;52.514;13.440;2022-09-27T04:18:17;12.60;54.00
13198;DHT22;6664;52.514;13.440;2022-09-27T04:20:44;12.60;54.40
13198;DHT22;6664;52.514;13.440;2022-09-27T04:23:13;12.50;55.00
13198;DHT22;6664;52.514;13.440;2022-09-27T04:25:43;12.50;54.90
13198;DHT22;6664;52.514;13.440;2022-09-27T04:28:10;12.50;55.00
13198;DHT22;6664;52.514;13.440;2022-09-27T04:30:37;12.50;55.60
13198;DHT22;6664;52.514;13.440;2022-09-27T04:33:04;12.50;55.90
13198;DHT22;6664;52.514;13.440;2022-09-27T04:35:34;12.50;56.00
13198;DHT22;6664;52.514;13.440;2022-09-27T04:38:19;12.50;56.30
13198;DHT22;6664;52.514;13.440;2022-09-27T04:40:52;12.50;56.50
13198;DHT22;6664;52.514;13.440;2022-09-27T04:43:18;12.40;57.20
13198;DHT22;6664;52.514;13.440;2022-09-27T04:45:45;12.40;57.40
13198;DHT22;6664;52.514;13.440;2022-09-27T04:48:14;12.40;58.10
13198;DHT22;6664;52.514;13.440;2022-09-27T04:50:44;12.40;58.80
13198;DHT22;6664;52.514;13.440;2022-09-27T04:53:16;12.40;58.70
13198;DHT22;6664;52.514;13.440;2022-09-27T04:55:46;12.30;59.00
13198;DHT22;6664;52.514;13.440;2022-09-27T04:58:14;12.30;59.80
13198;DHT22;6664;52.514;13.440;2022-09-27T05:00:41;12.30;60.10
13198;DHT22;6664;52.514;13.440;2022-09-27T05:03:11;12.10;60.20
13198;DHT22;6664;52.514;13.440;2022-09-27T05:05:38;12.10;61.00
13198;DHT22;6664;52.514;13.440;2022-09-27T05:08:04;12.10;61.70
13198;DHT22;6664;52.514;13.440;2022-09-27T05:10:32;12.10;62.40
13198;DHT22;6664;52.514;13.440;2022-09-27T05:13:01;12.10;62.40
13198;DHT22;6664;52.514;13.440;2022-09-27T05:15:30;12.10;63.10
13198;DHT22;6664;52.514;13.440;2022-09-27T05:17:57;12.10;63.00
13198;DHT22;6664;52.514;13.440;2022-09-27T05:20:24;12.10;63.30
13198;DHT22;6664;52.514;13.440;2022-09-27T05:22:51;12.10;63.20
13198;DHT22;6664;52.514;13.440;2022-09-27T05:25:18;12.10;63.80
13198;DHT22;6664;52.514;13.440;2022-09-27T05:27:45;12.20;64.00
13198;DHT22;6664;52.514;13.440;2022-09-27T05:30:12;12.10;63.90
13198;DHT22;6664;52.514;13.440;2022-09-27T05:32:42;12.10;64.40
13198;DHT22;6664;52.514;13.440;2022-09-27T05:35:14;12.00;65.00
13198;DHT22;6664;52.514;13.440;2022-09-27T05:37:43;12.00;65.80
13198;DHT22;6664;52.514;13.440;2022-09-27T05:40:16;12.00;65.70
13198;DHT22;6664;52.514;13.440;2022-09-27T05:42:48;11.90;66.50
13198;DHT22;6664;52.514;13.440;2022-09-27T05:45:16;11.90;67.40
13198;DHT22;6664;52.514;13.440;2022-09-27T05:47:50;11.80;68.20
13198;DHT22;6664;52.514;13.440;2022-09-27T05:50:20;11.90;68.20
13198;DHT22;6664;52.514;13.440;2022-09-27T05:52:47;12.00;68.20
13198;DHT22;6664;52.514;13.440;2022-09-27T05:55:15;12.00;68.30
13198;DHT22;6664;52.514;13.440;2022-09-27T05:57:42;12.10;69.30
13198;DHT22;6664;52.514;13.440;2022-09-27T06:00:09;12.20;69.30
13198;DHT22;6664;52.514;13.440;2022-09-27T06:02:36;12.30;68.60
13198;DHT22;6664;52.514;13.440;2022-09-27T06:05:03;12.30;68.30
13198;DHT22;6664;52.514;13.440;2022-09-27T06:07:35;12.30;67.70
13198;DHT22;6664;52.514;13.440;2022-09-27T06:10:04;12.30;68.70
13198;DHT22;6664;52.514;13.440;2022-09-27T06:12:33;12.20;68.90
13198;DHT22;6664;52.514;13.440;2022-09-27T06:15:05;12.20;69.50
13198;DHT22;6664;52.514;13.440;2022-09-27T06:17:36;12.20;69.40
13198;DHT22;6664;52.514;13.440;2022-09-27T06:20:03;12.20;69.30
13198;DHT22;6664;52.514;13.440;2022-09-27T06:22:30;12.30;69.60
13198;DHT22;6664;52.514;13.440;2022-09-27T06:24:59;12.20;69.40
13198;DHT22;6664;52.514;13.440;2022-09-27T06:27:26;12.20;70.40
13198;DHT22;6664;52.514;13.440;2022-09-27T06:29:53;12.30;69.60
13198;DHT22;6664;52.514;13.440;2022-09-27T06:32:21;12.20;69.30
13198;DHT22;6664;52.514;13.440;2022-09-27T06:34:51;12.30;69.40
13198;DHT22;6664;52.514;13.440;2022-09-27T06:37:17;12.30;69.40
13198;DHT22;6664;52.514;13.440;2022-09-27T06:39:44;12.30;69.60
13198;DHT22;6664;52.514;13.440;2022-09-27T06:42:14;12.30;69.60
13198;DHT22;6664;52.514;13.440;2022-09-27T06:44:44;12.40;70.10
13198;DHT22;6664;52.514;13.440;2022-09-27T06:47:16;12.50;69.70
13198;DHT22;6664;52.514;13.440;2022-09-27T06:49:43;12.50;69.90
13198;DHT22;6664;52.514;13.440;2022-09-27T06:52:10;12.50;69.60
13198;DHT22;6664;52.514;13.440;2022-09-27T06:54:37;12.50;69.50
13198;DHT22;6664;52.514;13.440;2022-09-27T06:57:04;12.50;69.60
13198;DHT22;6664;52.514;13.440;2022-09-27T06:59:31;12.50;69.50
13198;DHT22;6664;52.514;13.440;2022-09-27T07:02:17;12.50;69.00
13198;DHT22;6664;52.514;13.440;2022-09-27T07:04:44;12.50;69.40
13198;DHT22;6664;52.514;13.440;2022-09-27T07:07:11;12.60;69.60
13198;DHT22;6664;52.514;13.440;2022-09-27T07:09:41;12.60;69.60
13198;DHT22;6664;52.514;13.440;2022-09-27T07:12:11;12.70;69.40
13198;DHT22;6664;52.514;13.440;2022-09-27T07:14:38;12.70;69.50
13198;DHT22;6664;52.514;13.440;2022-09-27T07:17:05;12.90;69.90
13198;DHT22;6664;52.514;13.440;2022-09-27T07:19:32;12.90;68.60
13198;DHT22;6664;52.514;13.440;2022-09-27T07:21:59;13.00;68.80
13198;DHT22;6664;52.514;13.440;2022-09-27T07:24:26;13.00;68.20
13198;DHT22;6664;52.514;13.440;2022-09-27T07:26:53;13.10;68.10
13198;DHT22;6664;52.514;13.440;2022-09-27T07:29:20;13.20;68.20
13198;DHT22;6664;52.514;13.440;2022-09-27T07:31:47;13.30;67.70
13198;DHT22;6664;52.514;13.440;2022-09-27T07:34:14;13.20;67.10
13198;DHT22;6664;52.514;13.440;2022-09-27T07:36:43;13.20;67.80
13198;DHT22;6664;52.514;13.440;2022-09-27T07:39:10;13.20;67.30
13198;DHT22;6664;52.514;13.440;2022-09-27T07:41:37;13.20;67.40
13198;DHT22;6664;52.514;13.440;2022-09-27T07:44:06;13.20;67.10
13198;DHT22;6664;52.514;13.440;2022-09-27T07:46:36;13.20;67.50
13198;DHT22;6664;52.514;13.440;2022-09-27T07:49:05;13.20;67.70
13198;DHT22;6664;52.514;13.440;2022-09-27T07:51:32;13.20;67.00
13198;DHT22;6664;52.514;13.440;2022-09-27T07:53:59;13.20;67.10
13198;DHT22;6664;52.514;13.440;2022-09-27T07:56:34;13.10;67.90
13198;DHT22;6664;52.514;13.440;2022-09-27T07:59:01;13.00;67.80
13198;DHT22;6664;52.514;13.440;2022-09-27T08:01:28;13.10;68.10
13198;DHT22;6664;52.514;13.440;2022-09-27T08:03:55;13.10;67.80
13198;DHT22;6664;52.514;13.440;2022-09-27T08:06:24;13.30;67.50
13198;DHT22;6664;52.514;13.440;2022-09-27T08:08:50;13.40;67.30
13198;DHT22;6664;52.514;13.440;2022-09-27T08:11:17;13.30;66.40
13198;DHT22;6664;52.514;13.440;2022-09-27T08:13:45;13.20;65.90
13198;DHT22;6664;52.514;13.440;2022-09-27T08:16:14;13.30;66.60
13198;DHT22;6664;52.514;13.440;2022-09-27T08:18:43;13.30;67.00
13198;DHT22;6664;52.514;13.440;2022-09-27T08:21:10;13.30;66.30
13198;DHT22;6664;52.514;13.440;2022-09-27T08:23:37;13.20;66.20
13198;DHT22;6664;52.514;13.440;2022-09-27T08:26:04;13.10;66.60
13198;DHT22;6664;52.514;13.440;2022-09-27T08:28:31;13.20;67.00
13198;DHT22;6664;52.514;13.440;2022-09-27T08:31:00;13.30;66.90
13198;DHT22;6664;52.514;13.440;2022-09-27T08:33:29;13.30;67.10
13198;DHT22;6664;52.514;13.440;2022-09-27T08:36:02;13.30;66.20
13198;DHT22;6664;52.514;13.440;2022-09-27T08:38:29;13.20;66.60
13198;DHT22;6664;52.514;13.440;2022-09-27T08:41:09;13.20;67.40
13198;DHT22;6664;52.514;13.440;2022-09-27T08:49:20;13.10;68.00
13198;DHT22;6664;52.514;13.440;2022-09-27T08:51:50;13.30;67.80
13198;DHT22;6664;52.514;13.440;2022-09-27T08:54:22;13.30;67.10
13198;DHT22;6664;52.514;13.440;2022-09-27T08:56:52;13.40;67.00
13198;DHT22;6664;52.514;13.440;2022-09-27T08:59:24;13.40;66.40
13198;DHT22;6664;52.514;13.440;2022-09-27T09:01:53;13.40;66.80
13198;DHT22;6664;52.514;13.440;2022-09-27T09:04:48;13.40;67.00
13198;DHT22;6664;52.514;13.440;2022-09-27T09:16:10;13.60;66.80
13198;DHT22;6664;52.514;13.440;2022-09-27T09:35:38;13.90;65.60
13198;DHT22;6664;52.514;13.440;2022-09-27T09:38:44;14.00;65.10
13198;DHT22;6664;52.514;13.440;2022-09-27T09:41:17;14.10;65.30
13198;DHT22;6664;52.514;13.440;2022-09-27T09:43:57;14.20;64.70
13198;DHT22;6664;52.514;13.440;2022-09-27T09:46:34;14.20;63.30
13198;DHT22;6664;52.514;13.440;2022-09-27T09:51:50;14.40;63.20
13198;DHT22;6664;52.514;13.440;2022-09-27T09:54:41;14.40;63.30
13198;DHT22;6664;52.514;13.440;2022-09-27T09:57:32;14.40;63.10
13198;DHT22;6664;52.514;13.440;2022-09-27T10:00:16;14.20;63.10
13198;DHT22;6664;52.514;13.440;2022-09-27T10:02:44;14.10;63.00
13198;DHT22;6664;52.514;13.440;2022-09-27T10:05:22;14.10;63.70
13198;DHT22;6664;52.514;13.440;2022-09-27T10:07:53;14.00;62.90
13198;DHT22;6664;52.514;13.440;2022-09-27T10:10:22;14.00;63.30
13198;DHT22;6664;52.514;13.440;2022-09-27T10:12:51;14.10;64.10
13198;DHT22;6664;52.514;13.440;2022-09-27T10:15:22;14.30;63.20
13198;DHT22;6664;52.514;13.440;2022-09-27T10:17:55;14.80;63.20
13198;DHT22;6664;52.514;13.440;2022-09-27T10:20:41;15.10;62.00
13198;DHT22;6664;52.514;13.440;2022-09-27T10:23:14;15.20;60.20
13198;DHT22;6664;52.514;13.440;2022-09-27T10:25:55;15.20;59.20
13198;DHT22;6664;52.514;13.440;2022-09-27T10:28:41;15.30;58.90
13198;DHT22;6664;52.514;13.440;2022-09-27T10:31:19;15.40;58.70
13198;DHT22;6664;52.514;13.440;2022-09-27T10:36:29;15.40;57.80
13198;DHT22;6664;52.514;13.440;2022-09-27T10:39:04;15.30;56.50
13198;DHT22;6664;52.514;13.440;2022-09-27T10:41:41;15.40;56.50
13198;DHT22;6664;52.514;13.440;2022-09-27T10:46:48;15.60;55.50
13198;DHT22;6664;52.514;13.440;2022-09-27T10:52:05;16.00;55.20
13198;DHT22;6664;52.514;13.440;2022-09-27T10:54:36;16.30;54.50
13198;DHT22;6664;52.514;13.440;2022-09-27T10:57:11;16.30;52.40
13198;DHT22;6664;52.514;13.440;2022-09-27T10:59:44;16.70;52.30
13198;DHT22;6664;52.514;13.440;2022-09-27T11:02:21;17.70;51.30
13198;DHT22;6664;52.514;13.440;2022-09-27T11:05:29;18.20;48.00
13198;DHT22;6664;52.514;13.440;2022-09-27T11:08:17;18.10;46.20
13198;DHT22;6664;52.514;13.440;2022-09-27T11:20:00;16.20;49.30
13198;DHT22;6664;52.514;13.440;2022-09-27T11:22:48;15.90;50.40
13198;DHT22;6664;52.514;13.440;2022-09-27T11:28:55;14.80;53.60
13198;DHT22;6664;52.514;13.440;2022-09-27T11:31:51;14.60;54.60
13198;DHT22;6664;52.514;13.440;2022-09-27T11:48:12;14.20;58.60
13198;DHT22;6664;52.514;13.440;2022-09-27T12:00:23;12.10;63.20
13198;DHT22;6664;52.514;13.440;2022-09-27T12:08:40;10.90;75.60
13198;DHT22;6664;52.514;13.440;2022-09-27T12:14:00;10.60;78.10
13198;DHT22;6664;52.514;13.440;2022-09-27T12:16:29;10.50;80.80
13198;DHT22;6664;52.514;13.440;2022-09-27T12:18:58;10.50;83.10
13198;DHT22;6664;52.514;13.440;2022-09-27T12:21:29;10.50;83.30
13198;DHT22;6664;52.514;13.440;2022-09-27T12:23:59;10.60;85.00
13198;DHT22;6664;52.514;13.440;2022-09-27T12:26:42;10.60;86.50
13198;DHT22;6664;52.514;13.440;2022-09-27T12:29:31;10.70;87.30
13198;DHT22;6664;52.514;13.440;2022-09-27T12:32:16;10.80;87.30
13198;DHT22;6664;52.514;13.440;2022-09-27T12:42:44;12.70;87.90
13198;DHT22;6664;52.514;13.440;2022-09-27T12:45:18;12.90;81.90
13198;DHT22;6664;52.514;13.440;2022-09-27T12:50:43;13.30;77.30
13198;DHT22;6664;52.514;13.440;2022-09-27T13:07:39;16.20;57.20
13198;DHT22;6664;52.514;13.440;2022-09-27T13:10:21;15.30;57.60
13198;DHT22;6664;52.514;13.440;2022-09-27T13:12:53;17.30;58.20
13198;DHT22;6664;52.514;13.440;2022-09-27T13:15:33;18.20;47.60
13198;DHT22;6664;52.514;13.440;2022-09-27T13:18:03;16.70;48.80
13198;DHT22;6664;52.514;13.440;2022-09-27T13:25:54;14.80;53.90
13198;DHT22;6664;52.514;13.440;2022-09-27T13:31:06;14.20;55.60
13198;DHT22;6664;52.514;13.440;2022-09-27T13:33:49;15.70;51.40
13198;DHT22;6664;52.514;13.440;2022-09-27T13:36:31;15.60;51.80
13198;DHT22;6664;52.514;13.440;2022-09-27T13:39:15;15.30;53.70
13198;DHT22;6664;52.514;13.440;2022-09-27T13:47:03;13.70;58.60
13198;DHT22;6664;52.514;13.440;2022-09-27T13:50:03;13.40;60.00
13198;DHT22;6664;52.514;13.440;2022-09-27T13:52:43;13.10;60.90
13198;DHT22;6664;52.514;13.440;2022-09-27T13:55:44;13.20;63.10
13198;DHT22;6664;52.514;13.440;2022-09-27T13:58:26;13.40;63.00
13198;DHT22;6664;52.514;13.440;2022-09-27T14:01:00;13.40;61.90
13198;DHT22;6664;52.514;13.440;2022-09-27T14:06:04;13.60;60.70
13198;DHT22;6664;52.514;13.440;2022-09-27T14:11:13;14.50;60.10
13198;DHT22;6664;52.514;13.440;2022-09-27T14:13:43;14.90;58.10
13198;DHT22;6664;52.514;13.440;2022-09-27T14:16:14;14.40;56.70
13198;DHT22;6664;52.514;13.440;2022-09-27T14:18:52;14.60;56.60
13198;DHT22;6664;52.514;13.440;2022-09-27T14:21:32;14.40;56.50
13198;DHT22;6664;52.514;13.440;2022-09-27T14:24:26;14.10;57.60
13198;DHT22;6664;52.514;13.440;2022-09-27T14:27:31;14.00;58.60
13198;DHT22;6664;52.514;13.440;2022-09-27T14:30:21;13.90;58.30
13198;DHT22;6664;52.514;13.440;2022-09-27T14:32:53;18.40;50.20
13198;DHT22;6664;52.514;13.440;2022-09-27T14:35:29;21.50;42.30
13198;DHT22;6664;52.514;13.440;2022-09-27T14:38:19;23.60;33.70
13198;DHT22;6664;52.514;13.440;2022-09-27T14:41:05;22.70;31.00
13198;DHT22;6664;52.514;13.440;2022-09-27T14:43:35;20.20;34.50
13198;DHT22;6664;52.514;13.440;2022-09-27T14:46:06;19.70;35.30
13198;DHT22;6664;52.514;13.440;2022-09-27T14:48:34;18.20;38.40
13198;DHT22;6664;52.514;13.440;2022-09-27T14:53:46;15.80;45.00
13198;DHT22;6664;52.514;13.440;2022-09-27T14:56:19;15.20;46.70
13198;DHT22;6664;52.514;13.440;2022-09-27T14:59:03;14.70;49.20
13198;DHT22;6664;52.514;13.440;2022-09-27T15:01:33;14.60;50.40
13198;DHT22;6664;52.514;13.440;2022-09-27T15:04:05;14.50;52.00
13198;DHT22;6664;52.514;13.440;2022-09-27T15:06:36;14.40;52.40
13198;DHT22;6664;52.514;13.440;2022-09-27T15:09:05;14.00;53.20
13198;DHT22;6664;52.514;13.440;2022-09-27T15:11:33;13.90;54.80
13198;DHT22;6664;52.514;13.440;2022-09-27T15:14:06;13.60;55.50
13198;DHT22;6664;52.514;13.440;2022-09-27T15:16:37;13.50;56.50
13198;DHT22;6664;52.514;13.440;2022-09-27T15:19:27;13.50;57.10
13198;DHT22;6664;52.514;13.440;2022-09-27T15:21:55;13.70;57.40
13198;DHT22;6664;52.514;13.440;2022-09-27T15:24:46;13.60;58.30
13198;DHT22;6664;52.514;13.440;2022-09-27T15:27:23;13.60;57.80
13198;DHT22;6664;52.514;13.440;2022-09-27T15:29:53;13.50;57.80
13198;DHT22;6664;52.514;13.440;2022-09-27T15:32:22;13.50;57.90
13198;DHT22;6664;52.514;13.440;2022-09-27T15:34:50;13.40;58.70
13198;DHT22;6664;52.514;13.440;2022-09-27T15:37:27;13.40;58.50
13198;DHT22;6664;52.514;13.440;2022-09-27T15:42:56;13.30;59.10
13198;DHT22;6664;52.514;13.440;2022-09-27T15:45:28;13.30;58.80
13198;DHT22;6664;52.514;13.440;2022-09-27T15:48:06;13.30;58.50
13198;DHT22;6664;52.514;13.440;2022-09-27T15:50:37;13.10;58.70
13198;DHT22;6664;52.514;13.440;2022-09-27T15:53:04;13.00;58.80
13198;DHT22;6664;52.514;13.440;2022-09-27T15:55:38;12.90;59.70
13198;DHT22;6664;52.514;13.440;2022-09-27T15:58:20;12.80;60.60
13198;DHT22;6664;52.514;13.440;2022-09-27T16:01:01;12.70;61.40
13198;DHT22;6664;52.514;13.440;2022-09-27T16:03:34;12.50;61.60
13198;DHT22;6664;52.514;13.440;2022-09-27T16:06:03;12.40;60.80
13198;DHT22;6664;52.514;13.440;2022-09-27T16:08:30;12.30;60.20
13198;DHT22;6664;52.514;13.440;2022-09-27T16:11:00;12.20;60.60
13198;DHT22;6664;52.514;13.440;2022-09-27T16:13:31;11.90;60.60
13198;DHT22;6664;52.514;13.440;2022-09-27T16:16:00;11.80;60.80
13198;DHT22;6664;52.514;13.440;2022-09-27T16:18:27;11.70;58.80
13198;DHT22;6664;52.514;13.440;2022-09-27T16:20:57;11.60;61.30
13198;DHT22;6664;52.514;13.440;2022-09-27T16:23:24;11.60;60.10
13198;DHT22;6664;52.514;13.440;2022-09-27T16:25:52;11.50;59.90
13198;DHT22;6664;52.514;13.440;2022-09-27T16:28:19;11.50;59.50
13198;DHT22;6664;52.514;13.440;2022-09-27T16:30:46;11.60;59.30
13198;DHT22;6664;52.514;13.440;2022-09-27T16:33:13;11.50;59.20
13198;DHT22;6664;52.514;13.440;2022-09-27T16:35:40;11.50;59.60
13198;DHT22;6664;52.514;13.440;2022-09-27T16:38:07;11.50;59.60
13198;DHT22;6664;52.514;13.440;2022-09-27T16:40:35;11.40;60.30
13198;DHT22;6664;52.514;13.440;2022-09-27T16:43:03;11.40;60.90
13198;DHT22;6664;52.514;13.440;2022-09-27T16:45:33;11.30;61.20
13198;DHT22;6664;52.514;13.440;2022-09-27T16:48:03;11.20;61.90
13198;DHT22;6664;52.514;13.440;2022-09-27T16:50:32;11.20;62.50
13198;DHT22;6664;52.514;13.440;2022-09-27T16:53:18;11.20;62.90
13198;DHT22;6664;52.514;13.440;2022-09-27T16:55:47;11.10;62.90
13198;DHT22;6664;52.514;13.440;2022-09-27T16:58:14;11.00;62.80
13198;DHT22;6664;52.514;13.440;2022-09-27T17:00:41;10.90;63.30
13198;DHT22;6664;52.514;13.440;2022-09-27T17:03:08;10.80;63.80
13198;DHT22;6664;52.514;13.440;2022-09-27T17:05:36;10.80;63.50
13198;DHT22;6664;52.514;13.440;2022-09-27T17:08:05;10.70;64.20
13198;DHT22;6664;52.514;13.440;2022-09-27T17:10:32;10.60;64.60
13198;DHT22;6664;52.514;13.440;2022-09-27T17:13:01;10.60;64.80
13198;DHT22;6664;52.514;13.440;2022-09-27T17:15:28;10.60;65.50
13198;DHT22;6664;52.514;13.440;2022-09-27T17:17:55;10.60;65.70
13198;DHT22;6664;52.514;13.440;2022-09-27T17:20:24;10.50;65.80
13198;DHT22;6664;52.514;13.440;2022-09-27T17:22:53;10.50;66.20
13198;DHT22;6664;52.514;13.440;2022-09-27T17:25:20;10.50;66.60
13198;DHT22;6664;52.514;13.440;2022-09-27T17:27:48;10.50;67.10
13198;DHT22;6664;52.514;13.440;2022-09-27T17:30:18;10.50;67.90
13198;DHT22;6664;52.514;13.440;2022-09-27T17:32:46;10.40;67.50
13198;DHT22;6664;52.514;13.440;2022-09-27T17:35:13;10.40;67.50
13198;DHT22;6664;52.514;13.440;2022-09-27T17:37:40;10.40;68.40
13198;DHT22;6664;52.514;13.440;2022-09-27T17:40:07;10.40;68.00
13198;DHT22;6664;52.514;13.440;2022-09-27T17:42:33;10.40;68.50
13198;DHT22;6664;52.514;13.440;2022-09-27T17:45:03;10.30;68.50
13198;DHT22;6664;52.514;13.440;2022-09-27T17:47:32;10.20;69.30
13198;DHT22;6664;52.514;13.440;2022-09-27T17:50:17;10.30;68.60
13198;DHT22;6664;52.514;13.440;2022-09-27T17:52:51;10.30;69.00
13198;DHT22;6664;52.514;13.440;2022-09-27T17:55:19;10.20;68.80
13198;DHT22;6664;52.514;13.440;2022-09-27T17:57:52;10.20;68.90
13198;DHT22;6664;52.514;13.440;2022-09-27T18:00:19;10.20;69.40
13198;DHT22;6664;52.514;13.440;2022-09-27T18:02:46;10.20;70.00
13198;DHT22;6664;52.514;13.440;2022-09-27T18:05:16;10.20;70.10
13198;DHT22;6664;52.514;13.440;2022-09-27T18:07:46;10.20;70.10
13198;DHT22;6664;52.514;13.440;2022-09-27T18:10:13;10.20;70.20
13198;DHT22;6664;52.514;13.440;2022-09-27T18:12:42;10.20;71.00
13198;DHT22;6664;52.514;13.440;2022-09-27T18:15:09;10.20;71.30
13198;DHT22;6664;52.514;13.440;2022-09-27T18:17:35;10.20;71.30
13198;DHT22;6664;52.514;13.440;2022-09-27T18:20:06;10.20;71.60
13198;DHT22;6664;52.514;13.440;2022-09-27T18:22:35;10.30;71.60
13198;DHT22;6664;52.514;13.440;2022-09-27T18:25:05;10.40;71.70
13198;DHT22;6664;52.514;13.440;2022-09-27T18:27:32;10.40;71.80
13198;DHT22;6664;52.514;13.440;2022-09-27T18:30:00;10.40;71.70
13198;DHT22;6664;52.514;13.440;2022-09-27T18:32:28;10.40;71.60
13198;DHT22;6664;52.514;13.440;2022-09-27T18:34:55;10.40;71.50
13198;DHT22;6664;52.514;13.440;2022-09-27T18:37:22;10.40;71.30
13198;DHT22;6664;52.514;13.440;2022-09-27T18:39:49;10.40;71.30
13198;DHT22;6664;52.514;13.440;2022-09-27T18:42:16;10.40;71.80
13198;DHT22;6664;52.514;13.440;2022-09-27T18:44:45;10.30;71.80
13198;DHT22;6664;52.514;13.440;2022-09-27T18:47:14;10.20;72.00
13198;DHT22;6664;52.514;13.440;2022-09-27T18:49:41;10.20;72.60
13198;DHT22;6664;52.514;13.440;2022-09-27T18:52:08;10.10;72.70
13198;DHT22;6664;52.514;13.440;2022-09-27T18:54:37;10.00;73.40
13198;DHT22;6664;52.514;13.440;2022-09-27T18:57:08;10.00;73.90
13198;DHT22;6664;52.514;13.440;2022-09-27T18:59:35;10.00;73.30
13198;DHT22;6664;52.514;13.440;2022-09-27T19:02:02;10.00;72.30
13198;DHT22;6664;52.514;13.440;2022-09-27T19:04:36;10.00;72.30